createdAt,value
2022-10-08T00:00:18.109Z,13.90
2022-10-08T00:03:04.585Z,13.80
2022-10-08T00:05:58.498Z,13.80
2022-10-08T00:08:49.355Z,13.80
2022-10-08T00:11:40.254Z,13.90
2022-10-08T00:14:26.622Z,13.90
2022-10-08T00:17:13.345Z,13.90
2022-10-08T00:19:59.796Z,13.90
2022-10-08T00:22:46.652Z,13.80
2022-10-08T00:25:33.288Z,13.90
2022-10-08T00:28:20.954Z,13.80
2022-10-08T00:31:08.270Z,13.90
2022-10-08T00:33:56.645Z,13.90
2022-10-08T00:36:43.593Z,13.90
2022-10-08T00:39:30.278Z,13.80
2022-10-08T00:42:16.951Z,13.80
2022-10-08T00:45:05.662Z,13.70
2022-10-08T00:47:57.876Z,13.70
2022-10-08T00:50:43.907Z,13.60
2022-10-08T00:53:31.177Z,13.40
2022-10-08T00:56:17.753Z,13.40
2022-10-08T00:59:04.812Z,13.30
2022-10-08T01:01:53.606Z,13.10
2022-10-08T01:04:42.058Z,13.00
2022-10-08T01:07:35.552Z,12.80
2022-10-08T01:10:32.636Z,12.50
2022-10-08T01:13:34.604Z,12.60
2022-10-08T01:16:32.628Z,12.50
2022-10-08T01:19:50.333Z,12.60
2022-10-08T01:22:54.096Z,12.70
2022-10-08T01:25:55.694Z,12.80
2022-10-08T01:28:47.344Z,12.90
2022-10-08T01:31:41.644Z,13.00
2022-10-08T01:34:37.637Z,13.20
2022-10-08T01:37:28.273Z,13.10
2022-10-08T01:40:20.243Z,13.10
2022-10-08T01:43:10.767Z,13.10
2022-10-08T01:46:04.421Z,13.20
2022-10-08T01:48:54.190Z,13.20
2022-10-08T01:51:44.429Z,13.20
2022-10-08T01:54:32.971Z,13.20
2022-10-08T01:57:19.698Z,13.20
2022-10-08T02:00:10.486Z,13.20
2022-10-08T02:02:58.177Z,13.10
2022-10-08T02:05:48.097Z,13.10
2022-10-08T02:08:34.534Z,13.10
2022-10-08T02:11:20.829Z,13.10
2022-10-08T02:14:08.368Z,13.20
2022-10-08T02:17:02.685Z,13.20
2022-10-08T02:19:55.848Z,13.30
2022-10-08T02:22:54.669Z,13.30
2022-10-08T02:25:49.656Z,13.30
2022-10-08T02:28:44.286Z,13.30
2022-10-08T02:31:38.020Z,13.30
2022-10-08T02:34:28.090Z,13.20
2022-10-08T02:37:21.702Z,13.20
2022-10-08T02:40:12.078Z,13.30
2022-10-08T02:43:05.221Z,13.30
2022-10-08T02:45:56.344Z,13.30
2022-10-08T02:48:47.151Z,13.30
2022-10-08T02:51:37.166Z,13.30
2022-10-08T02:54:25.259Z,13.30
2022-10-08T02:57:17.095Z,13.30
2022-10-08T03:00:03.885Z,13.30
2022-10-08T03:02:58.150Z,13.30
2022-10-08T03:05:45.410Z,13.20
2022-10-08T03:08:33.729Z,13.20
2022-10-08T03:11:21.641Z,13.30
2022-10-08T03:14:11.158Z,13.20
2022-10-08T03:16:57.842Z,13.10
2022-10-08T03:19:44.820Z,13.10
2022-10-08T03:22:31.929Z,13.00
2022-10-08T03:25:18.166Z,13.10
2022-10-08T03:28:06.084Z,12.90
2022-10-08T03:30:52.261Z,13.00
2022-10-08T03:33:38.710Z,13.00
2022-10-08T03:36:26.351Z,13.00
2022-10-08T03:39:13.584Z,12.90
2022-10-08T03:41:59.773Z,12.90
2022-10-08T03:44:47.771Z,12.80
2022-10-08T03:47:34.084Z,12.80
2022-10-08T03:50:21.563Z,12.80
2022-10-08T03:53:07.783Z,12.70
2022-10-08T03:55:55.005Z,12.60
2022-10-08T03:58:41.683Z,12.70
2022-10-08T04:01:30.117Z,12.60
2022-10-08T04:04:17.143Z,12.60
2022-10-08T04:07:05.333Z,12.60
2022-10-08T04:09:51.574Z,12.40
2022-10-08T04:12:38.254Z,12.50
2022-10-08T04:15:24.696Z,12.40
2022-10-08T04:18:13.895Z,12.40
2022-10-08T04:21:01.057Z,12.30
2022-10-08T04:23:49.537Z,12.30
2022-10-08T04:26:35.988Z,12.20
2022-10-08T04:29:22.562Z,12.30
2022-10-08T04:32:09.138Z,12.20
2022-10-08T04:34:57.047Z,12.30
2022-10-08T04:37:43.238Z,12.20
2022-10-08T04:40:29.906Z,12.30
2022-10-08T04:43:16.353Z,12.30
2022-10-08T04:46:02.729Z,12.30
2022-10-08T04:48:50.563Z,12.20
2022-10-08T04:51:38.299Z,12.20
2022-10-08T04:54:24.821Z,12.20
2022-10-08T04:57:11.242Z,12.30
2022-10-08T05:00:17.044Z,12.20
2022-10-08T05:03:03.932Z,12.20
2022-10-08T05:05:50.133Z,12.30
2022-10-08T05:08:37.954Z,12.20
2022-10-08T05:11:26.269Z,12.20
2022-10-08T05:14:12.666Z,12.20
2022-10-08T05:16:59.271Z,12.20
2022-10-08T05:19:45.469Z,12.20
2022-10-08T05:22:32.017Z,12.20
2022-10-08T05:25:19.838Z,12.20
2022-10-08T05:28:06.190Z,12.20
2022-10-08T05:30:52.772Z,12.20
2022-10-08T05:33:39.543Z,12.20
2022-10-08T05:36:28.004Z,12.20
2022-10-08T05:39:14.822Z,12.20
2022-10-08T05:42:02.447Z,12.30
2022-10-08T05:44:48.710Z,12.30
2022-10-08T05:47:34.980Z,12.30
2022-10-08T05:50:21.482Z,12.30
2022-10-08T05:53:09.362Z,12.40
2022-10-08T05:56:01.448Z,12.50
2022-10-08T05:58:49.609Z,12.50
2022-10-08T06:01:36.167Z,12.60
2022-10-08T06:04:22.970Z,12.60
2022-10-08T06:07:09.070Z,12.70
2022-10-08T06:09:55.626Z,12.70
2022-10-08T06:12:41.976Z,12.70
2022-10-08T06:15:29.883Z,12.80
2022-10-08T06:18:16.333Z,12.90
2022-10-08T06:21:04.066Z,13.00
2022-10-08T06:23:51.942Z,12.90
2022-10-08T06:26:40.028Z,13.00
2022-10-08T06:29:26.305Z,12.90
2022-10-08T06:32:14.229Z,12.90
2022-10-08T06:35:00.462Z,12.90
2022-10-08T06:37:48.993Z,12.90
2022-10-08T06:40:38.914Z,12.90
2022-10-08T06:43:25.526Z,12.90
2022-10-08T06:46:11.795Z,12.90
2022-10-08T06:49:00.384Z,13.00
2022-10-08T06:51:46.961Z,13.10
2022-10-08T06:54:33.376Z,13.20
2022-10-08T06:57:19.785Z,13.30
2022-10-08T07:00:07.758Z,13.30
2022-10-08T07:02:54.015Z,13.40
2022-10-08T07:05:43.194Z,13.50
2022-10-08T07:08:30.178Z,13.60
2022-10-08T07:11:18.573Z,13.70
2022-10-08T07:14:05.151Z,13.80
2022-10-08T07:16:52.216Z,14.00
2022-10-08T07:19:39.074Z,14.10
2022-10-08T07:22:26.970Z,14.20
2022-10-08T07:25:13.283Z,14.20
2022-10-08T07:27:59.858Z,14.40
2022-10-08T07:30:46.640Z,14.60
2022-10-08T07:33:33.309Z,14.80
2022-10-08T07:36:22.960Z,15.00
2022-10-08T07:39:13.874Z,15.10
2022-10-08T07:42:00.270Z,15.20
2022-10-08T07:44:46.661Z,15.20
2022-10-08T07:47:32.766Z,15.30
2022-10-08T07:50:19.182Z,15.40
2022-10-08T07:53:05.520Z,15.40
2022-10-08T07:55:53.272Z,15.60
2022-10-08T07:58:40.086Z,15.60
2022-10-08T08:01:28.540Z,15.80
2022-10-08T08:04:15.587Z,16.00
2022-10-08T08:07:01.999Z,16.20
2022-10-08T08:09:48.205Z,16.40
2022-10-08T08:12:35.680Z,16.60
2022-10-08T08:15:21.965Z,16.90
2022-10-08T08:18:08.596Z,17.30
2022-10-08T08:20:59.922Z,17.60
2022-10-08T08:23:48.310Z,17.80
2022-10-08T08:26:37.830Z,18.10
2022-10-08T08:29:25.832Z,18.30
2022-10-08T08:32:12.423Z,18.60
2022-10-08T08:34:58.895Z,18.60
2022-10-08T08:37:45.590Z,18.70
2022-10-08T08:40:32.197Z,18.70
2022-10-08T08:43:18.290Z,19.10
2022-10-08T08:46:06.694Z,19.50
2022-10-08T08:48:56.570Z,19.50
2022-10-08T08:51:43.008Z,19.30
2022-10-08T08:54:29.618Z,19.10
2022-10-08T08:57:31.510Z,18.90
2022-10-08T09:00:20.796Z,19.00
2022-10-08T09:03:17.448Z,19.50
2022-10-08T09:06:09.959Z,19.90
2022-10-08T09:08:59.542Z,20.30
2022-10-08T09:11:45.761Z,20.50
2022-10-08T09:14:37.052Z,20.30
2022-10-08T09:17:31.172Z,20.30
2022-10-08T09:20:22.647Z,20.20
2022-10-08T09:23:14.939Z,20.00
2022-10-08T09:26:09.753Z,19.80
2022-10-08T09:28:57.894Z,19.30
2022-10-08T09:31:47.814Z,18.90
2022-10-08T09:34:34.539Z,18.80
2022-10-08T09:37:26.890Z,18.70
2022-10-08T09:40:22.294Z,18.70
2022-10-08T09:43:18.376Z,18.60
2022-10-08T09:46:11.898Z,18.60
2022-10-08T09:49:18.641Z,18.50
2022-10-08T09:52:16.932Z,18.50
2022-10-08T09:55:10.737Z,18.40
2022-10-08T09:58:00.614Z,18.30
2022-10-08T10:00:56.111Z,18.20
2022-10-08T10:03:49.920Z,18.10
2022-10-08T10:06:38.700Z,18.00
2022-10-08T10:09:34.873Z,18.00
2022-10-08T10:12:27.947Z,18.10
2022-10-08T10:15:19.055Z,18.10
2022-10-08T10:18:11.930Z,18.20
2022-10-08T10:21:02.142Z,18.30
2022-10-08T10:23:56.737Z,18.40
2022-10-08T10:26:45.325Z,18.40
2022-10-08T10:29:42.816Z,18.40
2022-10-08T10:32:33.807Z,18.50
2022-10-08T10:35:26.251Z,18.50
2022-10-08T10:38:17.527Z,18.50
2022-10-08T10:41:14.238Z,18.50
2022-10-08T10:44:05.450Z,18.50
2022-10-08T10:46:55.935Z,18.50
2022-10-08T10:49:43.506Z,18.30
2022-10-08T10:52:43.584Z,18.30
2022-10-08T10:55:35.703Z,18.30
2022-10-08T10:58:31.817Z,18.30
2022-10-08T11:01:32.207Z,18.30
2022-10-08T11:04:31.353Z,18.10
2022-10-08T11:08:02.190Z,18.00
2022-10-08T11:11:00.758Z,17.90
2022-10-08T11:13:59.423Z,17.70
2022-10-08T11:16:59.558Z,17.60
2022-10-08T11:19:57.358Z,17.40
2022-10-08T11:22:50.590Z,17.50
2022-10-08T11:26:09.830Z,17.40
2022-10-08T11:28:54.482Z,17.40
2022-10-08T11:31:43.381Z,17.40
2022-10-08T11:34:33.797Z,17.50
2022-10-08T11:37:26.563Z,17.50
2022-10-08T11:40:22.390Z,17.70
2022-10-08T11:43:14.031Z,17.90
2022-10-08T11:46:22.483Z,17.90
2022-10-08T11:49:42.714Z,17.90
2022-10-08T11:52:33.066Z,17.80
2022-10-08T11:55:24.449Z,17.70
2022-10-08T11:58:22.017Z,17.70
2022-10-08T12:01:10.548Z,17.60
2022-10-08T12:04:04.952Z,17.60
2022-10-08T12:07:02.993Z,17.40
2022-10-08T12:10:31.719Z,17.30
2022-10-08T12:13:32.814Z,17.30
2022-10-08T12:16:19.043Z,17.30
2022-10-08T12:19:32.698Z,17.20
2022-10-08T12:22:45.966Z,17.10
2022-10-08T12:25:40.326Z,17.30
2022-10-08T12:28:50.618Z,17.50
2022-10-08T12:31:39.967Z,17.60
2022-10-08T12:34:26.730Z,17.80
2022-10-08T12:37:24.431Z,17.80
2022-10-08T12:40:20.916Z,17.80
2022-10-08T12:43:19.166Z,17.70
2022-10-08T12:46:17.670Z,17.60
2022-10-08T12:49:16.839Z,17.30
2022-10-08T12:52:06.728Z,17.20
2022-10-08T12:54:54.999Z,17.20
2022-10-08T12:57:42.687Z,17.30
2022-10-08T13:00:33.895Z,17.30
2022-10-08T13:03:21.746Z,17.30
2022-10-08T13:06:27.565Z,17.30
2022-10-08T13:09:29.309Z,17.30
2022-10-08T13:12:15.838Z,17.20
2022-10-08T13:15:05.796Z,17.20
2022-10-08T13:17:54.054Z,17.10
2022-10-08T13:20:40.275Z,17.00
2022-10-08T13:23:33.169Z,17.10
2022-10-08T13:26:40.191Z,17.00
2022-10-08T13:29:32.832Z,16.90
2022-10-08T13:32:22.669Z,17.00
2022-10-08T13:35:23.446Z,16.90
2022-10-08T13:38:17.640Z,16.90
2022-10-08T13:41:06.165Z,16.70
2022-10-08T13:43:52.582Z,16.90
2022-10-08T13:46:39.147Z,16.80
2022-10-08T13:49:28.748Z,16.80
2022-10-08T13:52:18.061Z,16.80
2022-10-08T13:55:07.504Z,16.60
2022-10-08T13:57:54.357Z,16.40
2022-10-08T14:00:42.724Z,16.40
2022-10-08T14:03:29.170Z,16.30
2022-10-08T14:06:15.633Z,16.40
2022-10-08T14:09:04.862Z,16.40
2022-10-08T14:11:56.180Z,16.30
2022-10-08T14:14:42.423Z,16.30
2022-10-08T14:17:29.009Z,16.30
2022-10-08T14:20:15.297Z,16.30
2022-10-08T14:23:01.931Z,16.20
2022-10-08T14:25:49.520Z,16.20
2022-10-08T14:28:36.105Z,16.20
2022-10-08T14:31:22.587Z,16.00
2022-10-08T14:34:09.012Z,16.10
2022-10-08T14:36:55.877Z,16.20
2022-10-08T14:39:42.348Z,16.10
2022-10-08T14:42:30.001Z,16.00
2022-10-08T14:45:16.659Z,16.00
2022-10-08T14:48:03.440Z,16.00
2022-10-08T14:50:49.977Z,16.00
2022-10-08T14:53:36.478Z,16.00
2022-10-08T14:56:23.066Z,16.00
2022-10-08T14:59:12.338Z,15.90
2022-10-08T15:01:59.074Z,15.80
2022-10-08T15:04:45.512Z,15.80
2022-10-08T15:07:32.096Z,15.70
2022-10-08T15:10:18.515Z,15.70
2022-10-08T15:13:04.931Z,15.70
2022-10-08T15:15:52.546Z,15.60
2022-10-08T15:18:39.124Z,15.70
2022-10-08T15:21:25.387Z,15.70
2022-10-08T15:24:11.910Z,15.70
2022-10-08T15:26:58.124Z,15.80
2022-10-08T15:29:44.749Z,15.80
2022-10-08T15:32:32.857Z,15.70
2022-10-08T15:35:19.621Z,15.80
2022-10-08T15:38:05.867Z,15.80
2022-10-08T15:40:52.524Z,15.80
2022-10-08T15:43:39.042Z,15.70
2022-10-08T15:46:28.875Z,15.70
2022-10-08T15:49:16.510Z,15.60
2022-10-08T15:52:04.981Z,15.50
2022-10-08T15:54:51.466Z,15.50
2022-10-08T15:57:37.697Z,15.50
2022-10-08T16:00:24.274Z,15.50
2022-10-08T16:03:10.706Z,15.50
2022-10-08T16:06:01.302Z,15.60
2022-10-08T16:08:47.830Z,15.50
2022-10-08T16:11:35.453Z,15.50
2022-10-08T16:14:24.436Z,15.50
2022-10-08T16:17:10.786Z,15.50
2022-10-08T16:19:57.371Z,15.50
2022-10-08T16:22:45.371Z,15.50
2022-10-08T16:25:35.257Z,15.40
2022-10-08T16:28:21.834Z,15.30
2022-10-08T16:31:11.004Z,15.10
2022-10-08T16:33:58.656Z,14.90
2022-10-08T16:36:47.985Z,14.80
2022-10-08T16:39:35.464Z,14.70
2022-10-08T16:42:22.176Z,14.60
2022-10-08T16:45:09.422Z,14.60
2022-10-08T16:47:55.961Z,14.40
2022-10-08T16:50:43.196Z,14.40
2022-10-08T16:53:29.548Z,14.30
2022-10-08T16:56:17.086Z,14.30
2022-10-08T16:59:05.415Z,14.30
2022-10-08T17:01:54.129Z,14.20
2022-10-08T17:04:40.739Z,14.30
2022-10-08T17:07:27.123Z,14.20
2022-10-08T17:10:13.783Z,14.40
2022-10-08T17:13:01.609Z,14.30
2022-10-08T17:15:58.363Z,14.30
2022-10-08T17:18:45.123Z,14.30
2022-10-08T17:21:32.821Z,14.30
2022-10-08T17:24:19.121Z,14.20
2022-10-08T17:27:05.357Z,14.20
2022-10-08T17:29:52.933Z,14.30
2022-10-08T17:32:39.473Z,14.20
2022-10-08T17:35:25.830Z,14.10
2022-10-08T17:38:12.101Z,14.20
2022-10-08T17:40:58.522Z,14.20
2022-10-08T17:43:45.415Z,14.10
2022-10-08T17:46:34.421Z,14.10
2022-10-08T17:49:21.579Z,14.00
2022-10-08T17:52:07.886Z,13.80
2022-10-08T17:54:54.087Z,13.70
2022-10-08T17:57:40.584Z,13.50
2022-10-08T18:00:27.104Z,13.40
2022-10-08T18:03:17.338Z,13.40
2022-10-08T18:06:04.009Z,13.30
2022-10-08T18:08:54.642Z,13.30
2022-10-08T18:11:43.572Z,13.30
2022-10-08T18:14:29.968Z,13.30
2022-10-08T18:17:16.563Z,13.30
2022-10-08T18:20:04.601Z,13.30
2022-10-08T18:22:50.947Z,13.30
2022-10-08T18:25:37.605Z,13.20
2022-10-08T18:28:24.063Z,13.20
2022-10-08T18:31:12.940Z,13.10
2022-10-08T18:34:01.243Z,13.00
2022-10-08T18:36:49.208Z,12.90
2022-10-08T18:39:35.523Z,12.90
2022-10-08T18:42:21.950Z,12.90
2022-10-08T18:45:09.646Z,12.80
2022-10-08T18:47:56.253Z,12.70
2022-10-08T18:50:42.582Z,12.60
2022-10-08T18:53:33.144Z,12.50
2022-10-08T18:56:21.757Z,12.40
2022-10-08T18:59:09.658Z,12.40
2022-10-08T19:01:59.573Z,12.40
2022-10-08T19:04:46.392Z,12.40
2022-10-08T19:07:32.652Z,12.30
2022-10-08T19:10:20.266Z,12.20
2022-10-08T19:13:06.864Z,12.20
2022-10-08T19:15:53.490Z,12.10
2022-10-08T19:18:41.261Z,12.20
2022-10-08T19:21:27.738Z,12.00
2022-10-08T19:24:15.881Z,12.10
2022-10-08T19:27:03.705Z,12.00
2022-10-08T19:29:50.301Z,12.00
2022-10-08T19:32:36.572Z,11.90
2022-10-08T19:35:23.059Z,11.90
2022-10-08T19:38:09.497Z,11.80
2022-10-08T19:40:56.103Z,11.80
2022-10-08T19:43:44.366Z,11.70
2022-10-08T19:46:31.464Z,11.70
2022-10-08T19:49:18.202Z,11.80
2022-10-08T19:52:04.590Z,11.70
2022-10-08T19:54:51.197Z,11.60
2022-10-08T19:57:37.913Z,11.60
2022-10-08T20:00:25.636Z,11.60
2022-10-08T20:03:12.222Z,11.60
2022-10-08T20:05:58.740Z,11.50
2022-10-08T20:08:45.107Z,11.50
2022-10-08T20:11:32.682Z,11.50
2022-10-08T20:14:19.098Z,11.50
2022-10-08T20:17:06.721Z,11.50
2022-10-08T20:20:01.515Z,11.40
2022-10-08T20:22:56.237Z,11.40
2022-10-08T20:25:42.824Z,11.40
2022-10-08T20:28:28.998Z,11.50
2022-10-08T20:31:17.914Z,11.40
2022-10-08T20:34:07.550Z,11.30
2022-10-08T20:36:54.623Z,11.30
2022-10-08T20:39:40.689Z,11.30
2022-10-08T20:42:28.787Z,11.30
2022-10-08T20:45:15.235Z,11.20
2022-10-08T20:48:01.426Z,11.10
2022-10-08T20:50:49.318Z,11.10
2022-10-08T20:53:36.405Z,11.10
2022-10-08T20:56:23.276Z,11.10
2022-10-08T20:59:10.666Z,11.00
2022-10-08T21:01:57.328Z,11.00
2022-10-08T21:04:43.748Z,11.00
2022-10-08T21:07:31.585Z,11.00
2022-10-08T21:10:20.021Z,10.90
2022-10-08T21:13:09.613Z,10.90
2022-10-08T21:16:03.330Z,10.80
2022-10-08T21:18:50.955Z,10.80
2022-10-08T21:21:37.606Z,10.80
2022-10-08T21:24:25.424Z,10.80
2022-10-08T21:27:12.083Z,10.70
2022-10-08T21:29:58.661Z,10.70
2022-10-08T21:32:46.126Z,10.70
2022-10-08T21:35:36.225Z,10.60
2022-10-08T21:38:22.702Z,10.60
2022-10-08T21:41:14.942Z,10.50
2022-10-08T21:44:02.806Z,10.60
2022-10-08T21:46:49.042Z,10.60
2022-10-08T21:49:36.430Z,10.50
2022-10-08T21:52:22.960Z,10.50
2022-10-08T21:55:09.922Z,10.40
2022-10-08T21:57:58.055Z,10.40
2022-10-08T22:00:44.520Z,10.40
2022-10-08T22:03:30.781Z,10.40
2022-10-08T22:06:17.388Z,10.40
2022-10-08T22:09:04.545Z,10.40
2022-10-08T22:11:52.373Z,10.40
2022-10-08T22:14:40.006Z,10.30
2022-10-08T22:17:26.671Z,10.30
2022-10-08T22:20:12.893Z,10.30
2022-10-08T22:22:59.167Z,10.30
2022-10-08T22:25:53.581Z,10.30
2022-10-08T22:28:41.149Z,10.20
2022-10-08T22:31:29.268Z,10.30
2022-10-08T22:34:15.650Z,10.30
2022-10-08T22:37:02.169Z,10.30
2022-10-08T22:39:48.640Z,10.20
2022-10-08T22:42:34.863Z,10.10
2022-10-08T22:45:21.384Z,10.10
2022-10-08T22:48:09.087Z,10.00
2022-10-08T22:50:55.391Z,10.00
2022-10-08T22:53:41.928Z,10.00
2022-10-08T22:56:30.515Z,10.00
2022-10-08T22:59:16.693Z,9.90
2022-10-08T23:02:03.783Z,9.90
2022-10-08T23:04:51.442Z,9.90
2022-10-08T23:07:37.702Z,9.90
2022-10-08T23:10:24.276Z,9.90
2022-10-08T23:13:10.654Z,9.80
2022-10-08T23:16:02.596Z,9.80
2022-10-08T23:18:53.947Z,9.80
2022-10-08T23:21:44.329Z,9.80
2022-10-08T23:24:30.889Z,9.70
2022-10-08T23:27:17.401Z,9.80
2022-10-08T23:30:04.260Z,9.70
2022-10-08T23:32:51.051Z,9.70
2022-10-08T23:35:37.994Z,9.70
2022-10-08T23:38:25.518Z,9.70
2022-10-08T23:41:12.726Z,9.70
2022-10-08T23:43:59.778Z,9.60
2022-10-08T23:46:46.338Z,9.60
2022-10-08T23:49:32.493Z,9.60
2022-10-08T23:52:19.053Z,9.50
2022-10-08T23:55:07.549Z,9.50
2022-10-08T23:57:54.030Z,9.50
